Au Sable Forks, New York
Current Conditions -  °F | °C
As of 10:53 AM on Friday 24 Oct 2014 (Local Time) from KPBG Reporting Station
Overcast Overcast  
Wind Chill: 43°   Ceiling: 3300
Heat Index: 48°   Visibility: 10mi
Dew Point: 42°   Wind: 10mph
Humidity: 80%   Direction: 350°N
Pressure: 29.87"   Gusts: NA
Location:  44.44°N, 73.67°W
Report Text: KPBG 241453Z AUTO 35009KT 10SM OVC033 09/06 A2987 RMK AO2 SLP116 T00890056 58004
Loading
Personal Weather Stations






























Interactive Weather Map
Tropical Storm Tracking
New forecast layout! Learn more

10-Day Weather Forecast

Advertisements
Track Severe Weather on mobile